createdAt,value
2018-12-24T00:00:37.400Z,100856.88
2018-12-24T00:02:58.792Z,100845.44
2018-12-24T00:05:20.247Z,100797.75
2018-12-24T00:07:41.660Z,100802.46
2018-12-24T00:10:03.564Z,100840.64
2018-12-24T00:12:25.000Z,100846.45
2018-12-24T00:14:46.579Z,100844.72
2018-12-24T00:17:07.961Z,100845.22
2018-12-24T00:19:22.632Z,100808.99
2018-12-24T00:21:44.085Z,100844.09
2018-12-24T00:23:45.626Z,100857.64
2018-12-24T00:26:07.017Z,100866.30
2018-12-24T00:28:28.443Z,100863.13
2018-12-24T00:30:29.965Z,100871.53
2018-12-24T00:32:51.300Z,100831.38
2018-12-24T00:35:12.764Z,100870.89
2018-12-24T00:37:14.236Z,100868.83
2018-12-24T00:39:35.612Z,100825.42
2018-12-24T00:41:57.128Z,100825.27
2018-12-24T00:44:18.567Z,100865.42
2018-12-24T00:46:39.982Z,100859.12
2018-12-24T00:48:41.717Z,100869.25
2018-12-24T00:51:03.075Z,100875.84
2018-12-24T00:53:24.513Z,100835.81
2018-12-24T00:55:26.271Z,100881.98
2018-12-24T00:57:47.630Z,100839.95
2018-12-24T01:00:09.018Z,100889.33
2018-12-24T01:02:30.501Z,100887.41
2018-12-24T01:04:51.895Z,100847.80
2018-12-24T01:07:13.294Z,100893.26
2018-12-24T01:09:34.709Z,100866.80
2018-12-24T01:11:56.098Z,100856.36
2018-12-24T01:14:17.512Z,100863.61
2018-12-24T01:16:38.969Z,100892.14
2018-12-24T01:19:00.352Z,100887.20
2018-12-24T01:21:15.238Z,100890.25
2018-12-24T01:23:36.831Z,100893.16
2018-12-24T01:25:58.354Z,100888.86
2018-12-24T01:27:59.917Z,100894.50
2018-12-24T01:30:21.336Z,100862.95
2018-12-24T01:32:42.735Z,100902.41
2018-12-24T01:35:04.216Z,100907.06
2018-12-24T01:37:25.649Z,100904.71
2018-12-24T01:39:47.091Z,100874.48
2018-12-24T01:41:48.605Z,100916.45
2018-12-24T01:44:10.066Z,100883.45
2018-12-24T01:46:31.426Z,100912.06
2018-12-24T01:48:52.826Z,100879.30
2018-12-24T01:51:14.311Z,100880.21
2018-12-24T01:53:35.717Z,100924.85
2018-12-24T01:55:57.100Z,100884.87
2018-12-24T01:58:18.548Z,100911.93
2018-12-24T02:00:39.948Z,100951.82
2018-12-24T02:03:01.342Z,100961.11
2018-12-24T02:05:22.797Z,100927.02
2018-12-24T02:07:44.174Z,100965.08
2018-12-24T02:10:05.572Z,100937.20
2018-12-24T02:12:27.005Z,100983.05
2018-12-24T02:14:48.389Z,100946.65
2018-12-24T02:17:09.786Z,100989.40
2018-12-24T02:19:31.328Z,100994.03
2018-12-24T02:21:52.854Z,100999.92
2018-12-24T02:24:14.447Z,100967.80
2018-12-24T02:26:35.988Z,100999.43
2018-12-24T02:28:57.395Z,101007.19
2018-12-24T02:31:18.774Z,100979.77
2018-12-24T02:33:40.213Z,101016.95
2018-12-24T02:36:01.589Z,101022.66
2018-12-24T02:38:22.985Z,100987.38
2018-12-24T02:40:44.430Z,101027.09
2018-12-24T02:43:05.834Z,101034.34
2018-12-24T02:45:27.225Z,100997.30
2018-12-24T02:47:48.972Z,101043.18
2018-12-24T02:50:10.826Z,101044.34
2018-12-24T02:52:32.249Z,101058.94
2018-12-24T02:54:53.690Z,101018.11
2018-12-24T02:57:15.094Z,101071.00
2018-12-24T02:59:36.527Z,101075.97
2018-12-24T03:01:57.916Z,101057.74
2018-12-24T03:04:19.343Z,101078.10
2018-12-24T03:06:40.784Z,101082.34
2018-12-24T03:11:45.218Z,101058.00
2018-12-24T03:14:06.571Z,101096.88
2018-12-24T03:16:28.008Z,101099.94
2018-12-24T03:18:49.442Z,101104.39
2018-12-24T03:21:10.874Z,101111.02
2018-12-24T03:23:12.471Z,101119.25
2018-12-24T03:25:33.872Z,101116.64
2018-12-24T03:27:55.281Z,101089.22
2018-12-24T03:30:16.767Z,101136.15
2018-12-24T03:32:38.134Z,101145.59
2018-12-24T03:34:59.540Z,101115.07
2018-12-24T03:37:21.005Z,101152.73
2018-12-24T03:39:22.528Z,101156.30
2018-12-24T03:41:43.983Z,101132.20
2018-12-24T03:44:05.384Z,101119.81
2018-12-24T03:46:26.765Z,101164.17
2018-12-24T03:48:48.236Z,101168.89
2018-12-24T03:51:09.620Z,101173.42
2018-12-24T03:53:24.906Z,101157.63
2018-12-24T03:55:46.341Z,101196.22
2018-12-24T03:58:07.741Z,101198.52
2018-12-24T04:00:29.152Z,101165.41
2018-12-24T04:02:50.703Z,101210.20
2018-12-24T04:05:12.143Z,101215.81
2018-12-24T04:07:33.523Z,101176.84
2018-12-24T04:09:54.986Z,101225.02
2018-12-24T04:12:16.386Z,101185.30
2018-12-24T04:14:37.901Z,101230.47
2018-12-24T04:16:59.328Z,101210.80
2018-12-24T04:19:20.750Z,101240.61
2018-12-24T04:21:42.148Z,101252.14
2018-12-24T04:24:03.617Z,101251.20
2018-12-24T04:26:25.101Z,101217.91
2018-12-24T04:28:46.550Z,101262.88
2018-12-24T04:31:07.939Z,101271.77
2018-12-24T04:33:29.335Z,101276.77
2018-12-24T04:35:50.808Z,101288.03
2018-12-24T04:38:12.190Z,101297.27
2018-12-24T04:40:33.585Z,101304.56
2018-12-24T04:42:55.027Z,101313.36
2018-12-24T04:45:16.449Z,101320.23
2018-12-24T04:47:37.831Z,101327.86
2018-12-24T04:49:59.280Z,101334.41
2018-12-24T04:52:20.694Z,101296.97
2018-12-24T04:54:35.756Z,101346.94
2018-12-24T04:56:57.187Z,101318.50
2018-12-24T04:59:18.643Z,101368.68
2018-12-24T05:01:40.104Z,101375.81
2018-12-24T05:04:01.471Z,101383.75
2018-12-24T05:06:22.902Z,101356.46
2018-12-24T05:08:44.352Z,101399.09
2018-12-24T05:11:05.749Z,101399.92
2018-12-24T05:13:27.231Z,101409.56
2018-12-24T05:15:48.731Z,101420.16
2018-12-24T05:18:10.205Z,101428.73
2018-12-24T05:20:31.644Z,101435.22
2018-12-24T05:22:53.012Z,101443.41
2018-12-24T05:25:14.413Z,101448.10
2018-12-24T05:27:29.807Z,101460.23
2018-12-24T05:30:11.125Z,101429.09
2018-12-24T05:32:52.395Z,101487.15
2018-12-24T05:35:33.700Z,101500.35
2018-12-24T05:38:15.008Z,101470.30
2018-12-24T05:40:36.433Z,101478.17
2018-12-24T05:42:57.824Z,101493.67
2018-12-24T05:45:19.237Z,101543.95
2018-12-24T05:47:40.649Z,101542.44
2018-12-24T05:49:42.203Z,101558.94
2018-12-24T05:52:03.624Z,101519.41
2018-12-24T05:54:25.038Z,101564.98
2018-12-24T05:56:46.464Z,101530.09
2018-12-24T05:59:07.865Z,101586.38
2018-12-24T06:01:29.245Z,101593.80
2018-12-24T06:03:50.691Z,101592.16
2018-12-24T06:05:52.226Z,101606.86
2018-12-24T06:08:13.643Z,101574.14
2018-12-24T06:10:35.036Z,101616.11
2018-12-24T06:12:56.459Z,101591.09
2018-12-24T06:14:57.984Z,101627.39
2018-12-24T06:17:19.382Z,101639.11
2018-12-24T06:19:41.027Z,101640.09
2018-12-24T06:21:56.017Z,101647.09
2018-12-24T06:24:17.400Z,101601.51
2018-12-24T06:26:38.823Z,101658.16
2018-12-24T06:29:00.412Z,101666.61
2018-12-24T06:31:22.048Z,101672.76
2018-12-24T06:33:34.615Z,101680.55
2018-12-24T06:35:56.018Z,101689.97
2018-12-24T06:37:57.571Z,101700.05
2018-12-24T06:40:18.999Z,101668.41
2018-12-24T06:42:40.385Z,101711.61
2018-12-24T06:45:01.816Z,101722.32
2018-12-24T06:47:23.214Z,101722.66
2018-12-24T06:49:44.628Z,101732.73
2018-12-24T06:51:46.152Z,101739.06
2018-12-24T06:54:07.547Z,101720.08
2018-12-24T06:56:28.978Z,101714.39
2018-12-24T06:58:50.369Z,101764.11
2018-12-24T07:01:11.759Z,101770.27
2018-12-24T07:03:33.174Z,101783.75
2018-12-24T07:05:54.584Z,101793.82
2018-12-24T07:08:16.001Z,101798.23
2018-12-24T07:10:37.424Z,101757.42
2018-12-24T07:12:58.833Z,101757.59
2018-12-24T07:15:20.253Z,101806.00
2018-12-24T07:17:41.683Z,101806.48
2018-12-24T07:19:56.432Z,101771.05
2018-12-24T07:22:17.839Z,101781.11
2018-12-24T07:24:39.282Z,101823.22
2018-12-24T07:27:00.689Z,101836.36
2018-12-24T07:29:22.120Z,101846.45
2018-12-24T07:31:43.551Z,101855.08
2018-12-24T07:34:04.984Z,101866.25
2018-12-24T07:36:26.366Z,101870.48
2018-12-24T07:38:47.875Z,101887.06
2018-12-24T07:41:09.300Z,101894.34
2018-12-24T07:43:30.928Z,101853.80
2018-12-24T07:45:52.319Z,101908.28
2018-12-24T07:47:53.836Z,101911.20
2018-12-24T07:50:15.477Z,101879.55
2018-12-24T07:52:36.866Z,101888.44
2018-12-24T07:54:58.271Z,101932.66
2018-12-24T07:57:19.706Z,101941.45
2018-12-24T07:59:41.100Z,101947.75
2018-12-24T08:02:02.525Z,101919.73
2018-12-24T08:04:23.951Z,101966.91
2018-12-24T08:06:45.364Z,101969.87
2018-12-24T08:09:06.799Z,101980.52
2018-12-24T08:11:28.195Z,101935.00
2018-12-24T08:13:43.569Z,101991.23
2018-12-24T08:16:05.267Z,101947.80
2018-12-24T08:18:26.654Z,101955.53
2018-12-24T08:20:41.494Z,102004.94
2018-12-24T08:23:03.023Z,101978.52
2018-12-24T08:25:24.476Z,102019.87
2018-12-24T08:27:45.873Z,101973.97
2018-12-24T08:30:07.251Z,102027.55
2018-12-24T08:32:28.687Z,102002.97
2018-12-24T08:34:50.238Z,102043.55
2018-12-24T08:37:11.639Z,102053.26
2018-12-24T08:39:33.038Z,102010.22
2018-12-24T08:41:54.487Z,102060.26
2018-12-24T08:44:15.882Z,102070.87
2018-12-24T08:46:37.304Z,102079.50
2018-12-24T08:48:58.701Z,102038.16
2018-12-24T08:51:20.100Z,102092.91
2018-12-24T08:53:41.519Z,102091.70
2018-12-24T08:56:02.893Z,102053.34
2018-12-24T08:58:24.265Z,102100.45
2018-12-24T09:00:45.695Z,102111.46
2018-12-24T09:03:09.106Z,102076.07
2018-12-24T09:05:30.517Z,102128.08
2018-12-24T09:07:51.949Z,102122.39
2018-12-24T09:10:13.386Z,102124.19
2018-12-24T09:12:35.066Z,102125.04
2018-12-24T09:14:56.476Z,102093.34
2018-12-24T09:16:58.016Z,102134.94
2018-12-24T09:19:13.398Z,102092.85
2018-12-24T09:21:34.818Z,102098.59
2018-12-24T09:23:56.338Z,102144.51
2018-12-24T09:26:17.740Z,102152.39
2018-12-24T09:28:39.159Z,102171.64
2018-12-24T09:31:00.651Z,102121.98
2018-12-24T09:33:22.074Z,102172.68
2018-12-24T09:35:43.458Z,102177.09
2018-12-24T09:38:04.895Z,102183.53
2018-12-24T09:40:26.296Z,102140.44
2018-12-24T09:42:47.703Z,102193.98
2018-12-24T09:45:09.316Z,102190.51
2018-12-24T09:47:30.731Z,102200.63
2018-12-24T09:49:52.143Z,102200.29
2018-12-24T09:52:13.577Z,102198.31
2018-12-24T09:54:34.972Z,102219.09
2018-12-24T09:56:56.352Z,102169.83
2018-12-24T09:59:17.793Z,102221.98
2018-12-24T10:01:39.222Z,102221.39
2018-12-24T10:04:02.998Z,102191.53
2018-12-24T10:06:43.981Z,102183.36
2018-12-24T10:09:06.251Z,102187.78
2018-12-24T10:11:07.795Z,102228.45
2018-12-24T10:13:29.420Z,102187.73
2018-12-24T10:15:50.859Z,102186.67
2018-12-24T10:18:12.255Z,102191.22
2018-12-24T10:20:35.561Z,102231.10
2018-12-24T10:22:57.175Z,102233.15
2018-12-24T10:25:18.587Z,102185.08
2018-12-24T10:27:39.975Z,102194.40
2018-12-24T10:30:01.364Z,102245.06
2018-12-24T10:32:02.932Z,102245.23
2018-12-24T10:34:24.322Z,102204.64
2018-12-24T10:36:45.750Z,102247.84
2018-12-24T10:39:07.140Z,102219.14
2018-12-24T10:41:29.788Z,102257.46
2018-12-24T10:44:11.902Z,102215.38
2018-12-24T10:46:33.342Z,102204.92
2018-12-24T10:48:54.972Z,102256.47
2018-12-24T10:51:16.670Z,102216.36
2018-12-24T10:53:38.064Z,102219.33
2018-12-24T10:55:59.491Z,102258.23
2018-12-24T10:58:20.933Z,102216.13
2018-12-24T11:00:42.365Z,102249.28
2018-12-24T11:03:03.860Z,102216.16
2018-12-24T11:05:45.201Z,102228.23
2018-12-24T11:08:06.632Z,102259.73
2018-12-24T11:12:28.303Z,102276.05
2018-12-24T11:14:49.631Z,102271.31
2018-12-24T11:17:10.931Z,102232.28
2018-12-24T11:19:32.210Z,102234.13
2018-12-24T11:21:53.505Z,102277.98
2018-12-24T11:24:14.879Z,102279.16
2018-12-24T11:26:36.611Z,102284.84
2018-12-24T11:28:58.398Z,102288.36
2018-12-24T11:31:19.700Z,102291.48
2018-12-24T11:33:40.962Z,102256.29
2018-12-24T11:36:02.264Z,102263.83
2018-12-24T11:38:23.533Z,102300.88
2018-12-24T11:40:44.808Z,102298.83
2018-12-24T11:43:06.149Z,102266.18
2018-12-24T11:45:33.801Z,102298.41
2018-12-24T11:48:10.523Z,102252.56
2018-12-24T11:50:31.783Z,102254.03
2018-12-24T11:52:53.057Z,102295.16
2018-12-24T11:55:14.368Z,102304.66
2018-12-24T11:57:35.773Z,102263.36
2018-12-24T11:59:57.038Z,102309.13
2018-12-24T12:02:18.315Z,102323.11
2018-12-24T12:04:39.636Z,102314.36
2018-12-24T12:07:00.898Z,102315.31
2018-12-24T12:09:45.509Z,102287.88
2018-12-24T12:12:24.555Z,102283.12
2018-12-24T12:14:31.152Z,102336.15
2018-12-24T12:16:37.003Z,102342.48
2018-12-24T12:19:44.051Z,102336.34
2018-12-24T12:22:50.818Z,102342.46
2018-12-24T12:31:41.743Z,102337.43
2018-12-24T12:34:03.010Z,102308.91
2018-12-24T12:36:24.299Z,102347.36
2018-12-24T12:38:45.557Z,102311.23
2018-12-24T12:41:06.815Z,102306.62
2018-12-24T12:43:51.266Z,102354.85
2018-12-24T12:46:37.146Z,102367.61
2018-12-24T12:52:07.439Z,102356.38
2018-12-24T12:54:30.135Z,102366.40
2018-12-24T12:56:51.420Z,102374.23
2018-12-24T12:59:12.879Z,102376.94
2018-12-24T13:01:34.165Z,102375.13
2018-12-24T13:03:55.425Z,102377.22
2018-12-24T13:06:16.754Z,102381.83
2018-12-24T13:08:38.067Z,102339.38
2018-12-24T13:10:59.329Z,102395.20
2018-12-24T13:13:20.601Z,102358.22
2018-12-24T13:15:41.910Z,102408.30
2018-12-24T13:18:03.160Z,102368.80
2018-12-24T13:20:25.105Z,102376.67
2018-12-24T13:27:03.572Z,102379.31
2018-12-24T13:33:46.394Z,102398.20
2018-12-24T13:36:55.655Z,102449.17
2018-12-24T13:46:41.390Z,102456.56
2018-12-24T13:48:56.853Z,102454.72
2018-12-24T13:51:20.921Z,102414.53
2018-12-24T13:53:41.882Z,102463.56
2018-12-24T13:55:40.148Z,102465.30
2018-12-24T13:58:01.833Z,102430.92
2018-12-24T14:00:23.638Z,102436.98
2018-12-24T14:03:29.486Z,102479.03
2018-12-24T14:06:58.232Z,102438.78
2018-12-24T14:09:47.036Z,102442.06
2018-12-24T14:21:58.885Z,102492.70
2018-12-24T14:24:37.684Z,102483.25
2018-12-24T14:27:22.984Z,102495.34
2018-12-24T14:30:09.628Z,102459.93
2018-12-24T14:32:32.158Z,102464.98
2018-12-24T14:34:53.417Z,102497.64
2018-12-24T14:37:14.683Z,102452.10
2018-12-24T14:39:36.481Z,102503.85
2018-12-24T14:41:58.159Z,102464.39
2018-12-24T14:44:20.029Z,102473.73
2018-12-24T14:46:41.775Z,102513.05
2018-12-24T14:49:03.360Z,102477.56
2018-12-24T14:51:25.247Z,102470.91
2018-12-24T14:53:46.690Z,102473.67
2018-12-24T14:56:07.958Z,102481.47
2018-12-24T14:58:29.250Z,102519.63
2018-12-24T15:00:50.735Z,102534.03
2018-12-24T15:03:32.494Z,102538.62
2018-12-24T15:06:14.311Z,102509.81
2018-12-24T15:08:55.719Z,102509.57
2018-12-24T15:11:17.318Z,102563.42
2018-12-24T15:13:39.333Z,102565.25
2018-12-24T15:16:01.718Z,102562.23
2018-12-24T15:18:23.709Z,102524.44
2018-12-24T15:20:45.382Z,102567.84
2018-12-24T15:23:00.357Z,102524.84
2018-12-24T15:25:21.858Z,102535.95
2018-12-24T15:27:43.122Z,102580.67
2018-12-24T15:30:04.725Z,102586.70
2018-12-24T15:32:26.148Z,102546.76
2018-12-24T15:34:47.767Z,102589.35
2018-12-24T15:36:49.809Z,102588.91
2018-12-24T15:39:11.563Z,102585.58
2018-12-24T15:41:33.258Z,102536.09
2018-12-24T15:43:55.086Z,102581.56
2018-12-24T15:46:16.811Z,102532.87
2018-12-24T15:48:38.590Z,102547.02
2018-12-24T15:51:00.332Z,102582.22
2018-12-24T15:53:21.822Z,102548.00
2018-12-24T15:55:43.881Z,102591.20
2018-12-24T15:58:05.428Z,102552.86
2018-12-24T16:00:27.462Z,102590.94
2018-12-24T16:02:49.269Z,102594.73
2018-12-24T16:05:10.600Z,102560.14
2018-12-24T16:07:31.897Z,102597.67
2018-12-24T16:09:53.188Z,102553.13
2018-12-24T16:12:14.416Z,102596.27
2018-12-24T16:14:16.027Z,102594.98
2018-12-24T16:16:37.284Z,102543.16
2018-12-24T16:18:38.653Z,102588.58
2018-12-24T16:20:53.758Z,102583.30
2018-12-24T16:23:15.044Z,102578.11
2018-12-24T16:25:36.266Z,102537.83
2018-12-24T16:28:17.465Z,102536.06
2018-12-24T16:30:38.745Z,102583.70
2018-12-24T16:33:00.022Z,102535.40
2018-12-24T16:35:21.327Z,102587.07
2018-12-24T16:37:42.647Z,102543.38
2018-12-24T16:40:03.924Z,102580.35
2018-12-24T16:42:25.312Z,102582.92
2018-12-24T16:44:46.827Z,102585.95
2018-12-24T16:47:08.088Z,102547.22
2018-12-24T16:49:29.474Z,102584.70
2018-12-24T16:51:30.924Z,102586.17
2018-12-24T16:53:52.194Z,102582.22
2018-12-24T16:56:13.464Z,102544.54
2018-12-24T16:58:28.169Z,102598.58
2018-12-24T17:00:49.461Z,102552.04
2018-12-24T17:03:10.753Z,102592.87
2018-12-24T17:05:32.045Z,102564.90
2018-12-24T17:07:53.310Z,102607.05
2018-12-24T17:10:14.653Z,102569.08
2018-12-24T17:12:35.927Z,102615.92
2018-12-24T17:14:57.206Z,102584.67
2018-12-24T17:17:18.526Z,102627.20
2018-12-24T17:19:39.868Z,102628.02
2018-12-24T17:22:01.151Z,102634.88
2018-12-24T17:24:22.461Z,102638.12
2018-12-24T17:26:43.710Z,102636.85
2018-12-24T17:29:24.981Z,102592.19
2018-12-24T17:31:46.337Z,102623.55
2018-12-24T17:34:07.601Z,102580.86
2018-12-24T17:36:28.887Z,102627.55
2018-12-24T17:38:50.489Z,102626.25
2018-12-24T17:41:11.751Z,102597.55
2018-12-24T17:43:33.006Z,102586.06
2018-12-24T17:45:34.419Z,102636.56
2018-12-24T17:47:35.877Z,102633.41
2018-12-24T17:49:37.300Z,102628.51
2018-12-24T17:51:58.549Z,102638.09
2018-12-24T17:54:39.759Z,102595.69
2018-12-24T17:57:20.966Z,102634.03
2018-12-24T17:59:42.295Z,102639.56
2018-12-24T18:02:03.616Z,102648.33
2018-12-24T18:04:25.005Z,102650.91
2018-12-24T18:06:46.344Z,102650.13
2018-12-24T18:09:00.753Z,102655.97
2018-12-24T18:11:22.103Z,102653.17
2018-12-24T18:13:43.352Z,102609.85
2018-12-24T18:16:04.665Z,102644.42
2018-12-24T18:18:25.960Z,102636.22
2018-12-24T18:20:47.202Z,102588.81
2018-12-24T18:23:08.797Z,102636.44
2018-12-24T18:25:30.087Z,102624.11
2018-12-24T18:27:44.925Z,102585.51
2018-12-24T18:30:06.347Z,102636.89
2018-12-24T18:32:27.613Z,102643.74
2018-12-24T18:34:49.132Z,102642.11
2018-12-24T18:37:10.391Z,102590.02
2018-12-24T18:39:31.674Z,102629.10
2018-12-24T18:41:53.006Z,102637.48
2018-12-24T18:44:14.283Z,102638.01
2018-12-24T18:46:35.536Z,102593.16
2018-12-24T18:48:56.863Z,102624.62
2018-12-24T18:50:58.241Z,102612.72
2018-12-24T18:53:39.654Z,102611.41
2018-12-24T18:56:00.895Z,102615.10
2018-12-24T18:58:02.293Z,102615.11
2018-12-24T19:00:23.665Z,102616.84
2018-12-24T19:02:44.936Z,102605.36
2018-12-24T19:05:07.070Z,102553.55
2018-12-24T19:07:28.509Z,102588.69
2018-12-24T19:09:49.773Z,102588.61
2018-12-24T19:12:11.086Z,102596.39
2018-12-24T19:14:32.370Z,102597.38
2018-12-24T19:16:33.852Z,102595.19
2018-12-24T19:18:55.441Z,102551.96
2018-12-24T19:21:16.715Z,102550.95
2018-12-24T19:23:38.019Z,102564.25
2018-12-24T19:25:59.354Z,102603.30
2018-12-24T19:28:40.494Z,102599.92
2018-12-24T19:31:01.834Z,102609.31
2018-12-24T19:33:03.357Z,102609.30
2018-12-24T19:35:24.604Z,102575.45
2018-12-24T19:37:45.907Z,102623.05
2018-12-24T19:40:07.412Z,102592.76
2018-12-24T19:42:28.769Z,102626.65
2018-12-24T19:44:50.030Z,102636.06
2018-12-24T19:47:11.302Z,102594.82
2018-12-24T19:51:53.609Z,102614.95
2018-12-24T19:54:14.966Z,102653.56
2018-12-24T19:56:56.081Z,102611.03
2018-12-24T19:58:57.584Z,102654.64
2018-12-24T20:01:18.871Z,102612.12
2018-12-24T20:03:40.149Z,102608.55
2018-12-24T20:06:01.479Z,102656.48
2018-12-24T20:08:02.862Z,102659.33
2018-12-24T20:10:24.133Z,102647.63
2018-12-24T20:12:45.477Z,102657.95
2018-12-24T20:15:06.783Z,102613.68
2018-12-24T20:17:08.166Z,102660.52
2018-12-24T20:19:29.531Z,102659.54
2018-12-24T20:21:50.792Z,102667.56
2018-12-24T20:24:12.163Z,102664.34
2018-12-24T20:26:13.597Z,102662.62
2018-12-24T20:28:15.113Z,102662.33
2018-12-24T20:30:36.359Z,102647.54
2018-12-24T20:32:57.715Z,102619.68
2018-12-24T20:35:18.964Z,102652.73
2018-12-24T20:37:40.235Z,102618.79
2018-12-24T20:40:01.813Z,102653.76
2018-12-24T20:43:02.835Z,102613.94
2018-12-24T20:45:44.079Z,102662.47
2018-12-24T20:48:25.214Z,102658.92
2018-12-24T20:50:26.926Z,102664.04
2018-12-24T20:52:28.375Z,102665.38
2018-12-24T20:54:49.597Z,102635.25
2018-12-24T20:57:30.844Z,102670.30
2018-12-24T20:59:52.107Z,102632.27
2018-12-24T21:02:13.355Z,102679.72
2018-12-24T21:04:34.730Z,102672.22
2018-12-24T21:06:56.081Z,102675.93
2018-12-24T21:09:17.354Z,102634.19
2018-12-24T21:11:38.715Z,102669.88
2018-12-24T21:14:00.011Z,102650.61
2018-12-24T21:16:21.378Z,102612.64
2018-12-24T21:18:42.646Z,102653.14
2018-12-24T21:21:03.920Z,102642.22
2018-12-24T21:23:25.456Z,102641.41
2018-12-24T21:25:46.709Z,102602.13
2018-12-24T21:28:08.022Z,102641.17
2018-12-24T21:30:29.303Z,102592.60
2018-12-24T21:32:50.565Z,102633.52
2018-12-24T21:35:11.893Z,102629.95
2018-12-24T21:37:33.180Z,102627.71
2018-12-24T21:39:54.501Z,102577.46
2018-12-24T21:42:15.776Z,102608.24
2018-12-24T21:44:37.103Z,102614.08
2018-12-24T21:46:52.410Z,102610.05
2018-12-24T21:49:13.711Z,102568.64
2018-12-24T21:51:34.982Z,102577.20
2018-12-24T21:53:56.491Z,102611.83
2018-12-24T21:56:17.757Z,102612.91
2018-12-24T21:58:58.973Z,102605.09
2018-12-24T22:01:20.318Z,102597.31
2018-12-24T22:03:41.583Z,102550.75
2018-12-24T22:06:22.737Z,102564.75
2018-12-24T22:08:44.017Z,102592.67
2018-12-24T22:11:45.086Z,102554.52
2018-12-24T22:14:26.238Z,102590.19
2018-12-24T22:17:07.420Z,102546.75
2018-12-24T22:19:28.745Z,102597.62
2018-12-24T22:21:50.036Z,102601.81
2018-12-24T22:24:11.298Z,102567.23
2018-12-24T22:26:52.458Z,102615.50
2018-12-24T22:29:33.639Z,102624.11
2018-12-24T22:31:54.902Z,102617.59
2018-12-24T22:34:16.213Z,102588.63
2018-12-24T22:36:37.487Z,102580.30
2018-12-24T22:38:58.767Z,102619.96
2018-12-24T22:41:13.914Z,102611.02
2018-12-24T22:43:35.181Z,102573.59
2018-12-24T22:45:49.916Z,102614.16
2018-12-24T22:48:11.169Z,102582.90
2018-12-24T22:50:32.462Z,102617.99
2018-12-24T22:52:47.613Z,102612.38
2018-12-24T22:55:08.886Z,102570.48
2018-12-24T22:57:30.215Z,102605.69
2018-12-24T22:59:51.481Z,102567.37
2018-12-24T23:02:12.752Z,102599.89
2018-12-24T23:04:14.122Z,102598.16
2018-12-24T23:06:15.733Z,102607.28
2018-12-24T23:08:56.887Z,102609.19
2018-12-24T23:11:38.076Z,102568.55
2018-12-24T23:14:19.537Z,102563.66
2018-12-24T23:16:40.843Z,102602.05
2018-12-24T23:19:02.121Z,102598.02
2018-12-24T23:21:23.438Z,102555.15
2018-12-24T23:23:44.708Z,102597.95
2018-12-24T23:26:06.013Z,102568.64
2018-12-24T23:28:47.159Z,102605.09
2018-12-24T23:31:08.479Z,102607.72
2018-12-24T23:33:29.759Z,102600.67
2018-12-24T23:35:51.074Z,102565.72
2018-12-24T23:38:12.336Z,102562.09
2018-12-24T23:40:33.662Z,102603.51
2018-12-24T23:42:35.053Z,102599.61
2018-12-24T23:44:56.331Z,102600.13
2018-12-24T23:46:57.776Z,102602.27
2018-12-24T23:49:19.107Z,102604.30
2018-12-24T23:51:40.383Z,102601.95
2018-12-24T23:53:55.628Z,102602.30
2018-12-24T23:56:16.936Z,102597.32
2018-12-24T23:58:38.174Z,102605.60
